createdAt,value
2023-11-30T00:01:21.038Z,3.82
2023-11-30T00:04:46.241Z,3.75
2023-11-30T00:08:11.476Z,3.71
2023-11-30T00:11:36.688Z,3.68
2023-11-30T00:15:01.941Z,3.63
2023-11-30T00:18:27.209Z,3.62
2023-11-30T00:21:52.371Z,3.64
2023-11-30T00:25:17.581Z,3.71
2023-11-30T00:28:42.805Z,3.77
2023-11-30T00:32:08.033Z,3.78
2023-11-30T00:35:33.313Z,3.81
2023-11-30T00:38:58.520Z,3.87
2023-11-30T00:42:23.746Z,3.86
2023-11-30T00:45:55.242Z,3.86
2023-11-30T00:49:14.211Z,3.81
2023-11-30T00:52:39.464Z,3.79
2023-11-30T00:56:04.663Z,3.8
2023-11-30T00:59:29.957Z,3.79
2023-11-30T01:02:55.186Z,3.82
2023-11-30T01:06:20.401Z,3.83
2023-11-30T01:09:45.620Z,3.84
2023-11-30T01:13:10.872Z,3.84
2023-11-30T01:16:36.163Z,3.81
2023-11-30T01:20:01.360Z,3.73
2023-11-30T01:23:26.588Z,3.69
2023-11-30T01:26:51.844Z,3.62
2023-11-30T01:30:17.074Z,3.53
2023-11-30T01:33:42.335Z,3.5
2023-11-30T01:37:07.559Z,3.48
2023-11-30T01:40:32.765Z,3.4
2023-11-30T01:43:58.037Z,3.34
2023-11-30T01:47:23.233Z,3.3
2023-11-30T01:50:48.424Z,3.25
2023-11-30T01:54:13.702Z,3.22
2023-11-30T01:57:38.878Z,3.13
2023-11-30T02:01:04.201Z,3.05
2023-11-30T02:04:29.369Z,3.02
2023-11-30T02:07:54.537Z,3.08
2023-11-30T02:11:19.778Z,3.15
2023-11-30T02:14:45.021Z,3.21
2023-11-30T02:18:10.314Z,3.28
2023-11-30T02:21:35.485Z,3.39
2023-11-30T02:25:00.734Z,3.45
2023-11-30T02:28:25.919Z,3.5
2023-11-30T02:31:51.149Z,3.55
2023-11-30T02:35:16.382Z,3.6
2023-11-30T02:38:41.610Z,3.61
2023-11-30T02:42:06.850Z,3.61
2023-11-30T02:45:32.083Z,3.61
2023-11-30T02:48:57.301Z,3.57
2023-11-30T02:52:22.543Z,3.53
2023-11-30T02:55:47.757Z,3.48
2023-11-30T02:59:13.027Z,3.36
2023-11-30T03:02:38.319Z,3.28
2023-11-30T03:06:03.501Z,3.22
2023-11-30T03:09:28.813Z,3.18
2023-11-30T03:12:53.913Z,3.14
2023-11-30T03:16:19.179Z,3.12
2023-11-30T03:19:44.344Z,3.05
2023-11-30T03:23:09.603Z,2.98
2023-11-30T03:26:34.863Z,2.93
2023-11-30T03:30:00.054Z,2.82
2023-11-30T03:33:25.297Z,2.76
2023-11-30T03:36:50.592Z,2.66
2023-11-30T03:40:15.764Z,2.52
2023-11-30T03:43:41.020Z,2.38
2023-11-30T03:47:06.252Z,2.27
2023-11-30T03:50:31.504Z,2.2
2023-11-30T03:53:56.745Z,2.11
2023-11-30T03:57:21.953Z,2.06
2023-11-30T04:00:47.192Z,1.99
2023-11-30T04:04:12.392Z,1.91
2023-11-30T04:07:37.593Z,1.75
2023-11-30T04:11:02.864Z,1.67
2023-11-30T04:14:28.079Z,1.63
2023-11-30T04:17:53.382Z,1.64
2023-11-30T04:21:18.536Z,1.69
2023-11-30T04:24:43.710Z,1.78
2023-11-30T04:28:08.930Z,1.87
2023-11-30T04:31:34.273Z,1.93
2023-11-30T04:34:59.535Z,1.94
2023-11-30T04:38:24.734Z,1.97
2023-11-30T04:41:50.003Z,1.97
2023-11-30T04:45:15.287Z,1.92
2023-11-30T04:48:42.221Z,1.87
2023-11-30T04:52:05.792Z,1.78
2023-11-30T04:55:31.030Z,1.67
2023-11-30T04:58:56.253Z,1.53
2023-11-30T05:02:21.602Z,1.4
2023-11-30T05:05:46.778Z,1.32
2023-11-30T05:09:12.036Z,1.23
2023-11-30T05:12:37.212Z,1.09
2023-11-30T05:16:02.453Z,0.99
2023-11-30T05:19:27.719Z,0.92
2023-11-30T05:22:52.947Z,0.85
2023-11-30T05:26:18.207Z,0.79
2023-11-30T05:29:43.453Z,0.79
2023-11-30T05:33:08.757Z,0.73
2023-11-30T05:36:33.967Z,0.69
2023-11-30T05:39:59.173Z,0.58
2023-11-30T05:43:24.464Z,0.5
2023-11-30T05:46:49.648Z,0.45
2023-11-30T05:50:14.858Z,0.35
2023-11-30T05:53:40.146Z,0.28
2023-11-30T05:57:05.289Z,0.24
2023-11-30T06:00:30.553Z,0.23
2023-11-30T06:03:55.800Z,0.27
2023-11-30T06:07:20.911Z,0.33
2023-11-30T06:10:46.136Z,0.47
2023-11-30T06:14:11.383Z,0.59
2023-11-30T06:17:36.667Z,0.7
2023-11-30T06:21:02.045Z,0.83
2023-11-30T06:24:27.153Z,0.87
2023-11-30T06:27:52.383Z,0.9
2023-11-30T06:31:17.601Z,0.94
2023-11-30T06:34:42.845Z,0.97
2023-11-30T06:38:08.019Z,1.03
2023-11-30T06:41:33.278Z,1.09
2023-11-30T06:44:58.519Z,1.15
2023-11-30T06:48:23.773Z,1.25
2023-11-30T06:51:49.031Z,1.34
2023-11-30T06:55:14.226Z,1.44
2023-11-30T06:58:39.450Z,1.53
2023-11-30T07:02:04.701Z,1.58
2023-11-30T07:05:29.906Z,1.64
2023-11-30T07:08:55.152Z,1.74
2023-11-30T07:12:20.382Z,1.86
2023-11-30T07:15:45.648Z,1.97
2023-11-30T07:19:10.861Z,2.07
2023-11-30T07:22:36.076Z,2.17
2023-11-30T07:26:01.348Z,2.28
2023-11-30T07:29:27.108Z,2.42
2023-11-30T07:32:51.805Z,2.53
2023-11-30T07:36:17.110Z,2.66
2023-11-30T07:39:42.298Z,2.8
2023-11-30T07:43:07.518Z,2.9
2023-11-30T07:46:32.708Z,3.02
2023-11-30T07:49:57.947Z,3.12
2023-11-30T07:53:23.195Z,3.23
2023-11-30T07:56:48.422Z,3.33
2023-11-30T08:00:13.716Z,3.37
2023-11-30T08:03:38.981Z,3.41
2023-11-30T08:07:04.142Z,3.46
2023-11-30T08:10:29.400Z,3.52
2023-11-30T08:13:54.592Z,3.58
2023-11-30T08:17:19.830Z,3.61
2023-11-30T08:20:44.975Z,3.63
2023-11-30T08:24:10.212Z,3.69
2023-11-30T08:27:35.407Z,3.82
2023-11-30T08:31:00.656Z,3.92
2023-11-30T08:34:25.869Z,4.01
2023-11-30T08:37:51.041Z,4.08
2023-11-30T08:41:16.234Z,4.11
2023-11-30T08:44:41.415Z,4.26
2023-11-30T08:48:06.763Z,4.47
2023-11-30T08:51:31.866Z,4.73
2023-11-30T08:54:56.998Z,4.95
2023-11-30T08:58:22.194Z,5.09
2023-11-30T09:01:47.545Z,5.22
2023-11-30T09:05:12.687Z,5.26
2023-11-30T09:08:37.913Z,5.25
2023-11-30T09:12:03.180Z,5.22
2023-11-30T09:15:28.413Z,5.14
2023-11-30T09:18:53.584Z,5.07
2023-11-30T09:22:18.770Z,4.93
2023-11-30T09:25:44.019Z,4.92
2023-11-30T09:29:09.245Z,4.94
2023-11-30T09:32:34.537Z,4.97
2023-11-30T09:35:59.729Z,5
2023-11-30T09:39:25.016Z,5.06
2023-11-30T09:42:50.258Z,5.14
2023-11-30T09:46:15.519Z,5.16
2023-11-30T09:49:40.723Z,5.13
2023-11-30T09:53:05.944Z,5.09
2023-11-30T09:56:31.206Z,5.15
2023-11-30T09:59:56.497Z,5.24
2023-11-30T10:03:21.736Z,5.36
2023-11-30T10:06:46.954Z,5.5
2023-11-30T10:10:12.154Z,5.57
2023-11-30T10:13:37.397Z,5.62
2023-11-30T10:17:02.733Z,5.59
2023-11-30T10:20:27.911Z,5.59
2023-11-30T10:23:53.183Z,5.59
2023-11-30T10:27:18.423Z,5.59
2023-11-30T10:30:43.732Z,5.57
2023-11-30T10:34:09.121Z,5.55
2023-11-30T10:37:34.133Z,5.54
2023-11-30T10:40:59.396Z,5.53
2023-11-30T10:44:24.625Z,5.5
2023-11-30T10:47:49.907Z,5.5
2023-11-30T10:51:15.210Z,5.48
2023-11-30T10:54:40.427Z,5.52
2023-11-30T10:58:05.640Z,5.56
2023-11-30T11:01:31.072Z,5.63
2023-11-30T11:04:56.210Z,5.71
2023-11-30T11:08:21.477Z,5.8
2023-11-30T11:11:46.705Z,5.88
2023-11-30T11:15:14.367Z,5.94
2023-11-30T11:18:37.263Z,5.95
2023-11-30T11:22:02.489Z,5.93
2023-11-30T11:25:27.780Z,5.88
2023-11-30T11:28:53.043Z,5.81
2023-11-30T11:32:18.256Z,5.79
2023-11-30T11:35:43.517Z,5.77
2023-11-30T11:39:08.812Z,5.74
2023-11-30T11:42:34.194Z,5.81
2023-11-30T11:45:59.261Z,5.88
2023-11-30T11:49:24.456Z,5.97
2023-11-30T11:52:49.728Z,5.99
2023-11-30T11:56:14.956Z,5.98
2023-11-30T11:59:40.211Z,5.98
2023-11-30T12:03:05.417Z,5.92
2023-11-30T12:06:30.681Z,5.91
2023-11-30T12:09:55.931Z,5.96
2023-11-30T12:13:21.146Z,6.02
2023-11-30T12:16:46.439Z,6.08
2023-11-30T12:20:11.705Z,6.13
2023-11-30T12:23:36.915Z,6.1
2023-11-30T12:27:02.156Z,6.08
2023-11-30T12:30:27.460Z,6.13
2023-11-30T12:33:53.152Z,6.22
2023-11-30T12:37:17.960Z,6.26
2023-11-30T12:40:43.182Z,6.25
2023-11-30T12:44:08.419Z,6.27
2023-11-30T12:47:33.737Z,6.27
2023-11-30T12:50:58.978Z,6.31
2023-11-30T12:54:24.329Z,6.37
2023-11-30T12:57:49.617Z,6.42
2023-11-30T13:01:14.896Z,6.42
2023-11-30T13:04:40.340Z,6.45
2023-11-30T13:08:05.538Z,6.45
2023-11-30T13:11:30.761Z,6.49
2023-11-30T13:14:56.010Z,6.54
2023-11-30T13:18:21.299Z,6.57
2023-11-30T13:21:46.583Z,6.56
2023-11-30T13:25:11.909Z,6.56
2023-11-30T13:28:40.098Z,6.55
2023-11-30T13:32:02.453Z,6.51
2023-11-30T13:35:27.740Z,6.46
2023-11-30T13:38:52.992Z,6.41
2023-11-30T13:42:18.641Z,6.34
2023-11-30T13:45:43.859Z,6.29
2023-11-30T13:49:09.126Z,6.23
2023-11-30T13:52:34.363Z,6.15
2023-11-30T13:56:00.323Z,6.09
2023-11-30T13:59:25.570Z,6.05
2023-11-30T14:02:50.905Z,6.04
2023-11-30T14:06:16.163Z,6.07
2023-11-30T14:09:41.444Z,6.1
2023-11-30T14:13:06.721Z,6.09
2023-11-30T14:16:32.013Z,6.08
2023-11-30T14:19:57.252Z,6.07
2023-11-30T14:23:22.506Z,6.07
2023-11-30T14:26:47.777Z,6.05
2023-11-30T14:30:13.019Z,6.02
2023-11-30T14:33:38.297Z,5.99
2023-11-30T14:37:03.540Z,5.98
2023-11-30T14:40:28.824Z,5.97
2023-11-30T14:43:54.036Z,5.92
2023-11-30T14:47:19.292Z,5.88
2023-11-30T14:50:44.552Z,5.85
2023-11-30T14:54:09.771Z,5.84
2023-11-30T14:57:35.083Z,5.85
2023-11-30T15:01:00.380Z,5.83
2023-11-30T15:04:25.631Z,5.76
2023-11-30T15:07:50.867Z,5.72
2023-11-30T15:11:16.120Z,5.66
2023-11-30T15:44:45.976Z,2.79
2023-11-30T15:48:11.248Z,3.74
2023-11-30T15:51:36.495Z,3.96
2023-11-30T15:55:01.747Z,4.11
2023-11-30T15:58:26.974Z,4.22
2023-11-30T16:01:52.329Z,4.27
2023-11-30T16:05:17.513Z,4.3
2023-11-30T16:08:42.780Z,4.38
2023-11-30T16:12:08.049Z,4.48
2023-11-30T16:15:33.360Z,4.52
2023-11-30T16:18:58.660Z,4.53
2023-11-30T16:22:24.613Z,4.53
2023-11-30T16:25:49.948Z,4.54
2023-11-30T16:29:15.180Z,4.52
2023-11-30T16:32:40.411Z,4.49
2023-11-30T16:36:05.636Z,4.44
2023-11-30T16:39:30.926Z,4.38
2023-11-30T16:42:56.228Z,4.33
2023-11-30T16:46:21.550Z,4.26
2023-11-30T16:49:46.762Z,4.14
2023-11-30T16:53:12.078Z,4.05
2023-11-30T16:56:37.386Z,3.97
2023-11-30T17:00:02.663Z,3.95
2023-11-30T17:03:28.074Z,3.97
2023-11-30T17:06:53.376Z,3.94
2023-11-30T17:10:18.657Z,3.91
2023-11-30T17:13:44.028Z,3.9
2023-11-30T17:17:10.046Z,3.89
2023-11-30T17:20:35.323Z,3.88
2023-11-30T17:24:00.797Z,3.86
2023-11-30T17:27:26.617Z,3.85
2023-11-30T17:30:52.147Z,3.85
2023-11-30T17:34:17.544Z,3.86
2023-11-30T17:37:42.753Z,3.85
2023-11-30T17:41:08.966Z,3.86
2023-11-30T17:44:33.384Z,3.87
2023-11-30T17:47:59.427Z,3.88
2023-11-30T17:51:24.672Z,3.9
2023-11-30T17:54:49.943Z,3.95
2023-11-30T17:58:15.182Z,3.98
2023-11-30T18:01:40.499Z,4.03
2023-11-30T18:05:05.682Z,4.09
2023-11-30T18:08:30.944Z,4.11
2023-11-30T18:11:56.252Z,4.08
2023-11-30T18:15:21.530Z,4.05
2023-11-30T18:18:46.834Z,4.05
2023-11-30T18:22:12.038Z,4.04
2023-11-30T18:25:37.308Z,4.04
2023-11-30T18:29:02.566Z,4.07
2023-11-30T18:32:27.844Z,4.05
2023-11-30T18:35:53.121Z,4.04
2023-11-30T18:39:18.406Z,4.04
2023-11-30T18:42:43.644Z,4.04
2023-11-30T18:46:15.913Z,4.03
2023-11-30T18:49:41.175Z,3.94
2023-11-30T18:53:06.466Z,3.86
2023-11-30T18:56:31.685Z,3.79
2023-11-30T18:59:56.985Z,3.69
2023-11-30T19:03:22.352Z,3.65
2023-11-30T19:06:47.536Z,3.63
2023-11-30T19:10:12.779Z,3.61
2023-11-30T19:13:38.025Z,3.61
2023-11-30T19:17:03.264Z,3.59
2023-11-30T19:20:28.734Z,3.55
2023-11-30T19:23:53.982Z,3.51
2023-11-30T19:27:19.302Z,3.45
2023-11-30T19:30:44.622Z,3.42
2023-11-30T19:34:09.851Z,3.37
2023-11-30T19:37:35.154Z,3.28
2023-11-30T19:41:00.527Z,3.2
2023-11-30T19:44:25.752Z,3.14
2023-11-30T19:47:50.996Z,3.09
2023-11-30T19:51:16.213Z,3.05
2023-11-30T19:54:41.480Z,3.02
2023-11-30T19:58:06.763Z,3.02
2023-11-30T20:01:32.050Z,3.01
2023-11-30T20:04:57.233Z,2.99
2023-11-30T20:08:22.472Z,2.97
2023-11-30T20:11:47.712Z,2.96
2023-11-30T20:15:12.998Z,2.91
2023-11-30T20:18:38.272Z,2.86
2023-11-30T20:22:03.489Z,2.83
2023-11-30T20:25:28.711Z,2.74
2023-11-30T20:28:53.967Z,2.69
2023-11-30T20:32:20.026Z,2.67
2023-11-30T20:35:44.478Z,2.57
2023-11-30T20:39:09.724Z,2.48
2023-11-30T20:42:34.992Z,2.36
2023-11-30T20:46:00.293Z,2.23
2023-11-30T20:49:25.457Z,2.16
2023-11-30T20:52:50.727Z,2.11
2023-11-30T20:56:15.967Z,2.06
2023-11-30T20:59:42.594Z,2.03
2023-11-30T21:03:06.728Z,2.01
2023-11-30T21:06:31.851Z,2.01
2023-11-30T21:09:57.151Z,2.05
2023-11-30T21:13:22.356Z,2.08
2023-11-30T21:16:47.632Z,2.13
2023-11-30T21:20:12.817Z,2.21
2023-11-30T21:23:38.016Z,2.22
2023-11-30T21:27:03.237Z,2.29
2023-11-30T21:30:28.482Z,2.35
2023-11-30T21:33:53.773Z,2.41
2023-11-30T21:37:19.012Z,2.5
2023-11-30T21:40:44.259Z,2.62
2023-11-30T21:44:09.513Z,2.69
2023-11-30T21:47:34.744Z,2.71
2023-11-30T21:50:59.912Z,2.72
2023-11-30T21:54:25.150Z,2.75
2023-11-30T21:57:50.370Z,2.85
2023-11-30T22:01:15.706Z,2.94
2023-11-30T22:04:40.830Z,3.03
2023-11-30T22:08:05.987Z,3.09
2023-11-30T22:11:31.253Z,3.17
2023-11-30T22:14:56.506Z,3.21
2023-11-30T22:18:21.750Z,3.22
2023-11-30T22:21:47.021Z,3.21
2023-11-30T22:25:12.196Z,3.24
2023-11-30T22:28:37.372Z,3.26
2023-11-30T22:32:02.579Z,3.3
2023-11-30T22:35:27.907Z,3.34
2023-11-30T22:38:53.145Z,3.39
2023-11-30T22:42:18.354Z,3.4
2023-11-30T22:45:43.624Z,3.4
2023-11-30T22:49:08.834Z,3.35
2023-11-30T22:52:34.148Z,3.29
2023-11-30T22:55:59.336Z,3.21
2023-11-30T22:59:24.590Z,3.15
2023-11-30T23:02:50.069Z,3.11
2023-11-30T23:06:15.084Z,3.06
2023-11-30T23:09:40.385Z,2.96
2023-11-30T23:13:05.572Z,2.81
2023-11-30T23:16:30.857Z,2.71
2023-11-30T23:19:56.093Z,2.63
2023-11-30T23:23:21.277Z,2.58
2023-11-30T23:26:46.560Z,2.59
2023-11-30T23:30:11.737Z,2.61
2023-11-30T23:33:37.019Z,2.62
2023-11-30T23:37:02.240Z,2.61
2023-11-30T23:40:27.447Z,2.59
2023-11-30T23:43:52.721Z,2.61
2023-11-30T23:47:17.956Z,2.6
2023-11-30T23:50:43.241Z,2.58
2023-11-30T23:54:08.488Z,2.6
2023-11-30T23:57:33.738Z,2.6
